createdAt,value
2023-08-17T00:00:51.476Z,11.37
2023-08-17T00:03:20.934Z,10.67
2023-08-17T00:05:49.516Z,10.73
2023-08-17T00:08:18.455Z,11.30
2023-08-17T00:10:46.657Z,11.37
2023-08-17T00:13:15.485Z,11.30
2023-08-17T00:15:46.241Z,11.73
2023-08-17T00:18:14.417Z,12.20
2023-08-17T00:20:43.791Z,11.57
2023-08-17T00:23:12.161Z,11.80
2023-08-17T00:25:40.563Z,11.23
2023-08-17T00:28:08.605Z,11.93
2023-08-17T00:30:38.826Z,12.50
2023-08-17T00:33:07.339Z,11.60
2023-08-17T00:35:35.520Z,11.40
2023-08-17T00:38:05.396Z,11.30
2023-08-17T00:40:33.500Z,11.97
2023-08-17T00:43:01.554Z,11.93
2023-08-17T00:45:30.009Z,11.43
2023-08-17T00:48:00.614Z,10.67
2023-08-17T00:50:31.166Z,10.70
2023-08-17T00:52:59.895Z,10.10
2023-08-17T00:55:31.472Z,9.63
2023-08-17T00:58:00.030Z,10.53
2023-08-17T01:00:28.571Z,9.93
2023-08-17T01:03:00.259Z,10.73
2023-08-17T01:05:28.318Z,10.60
2023-08-17T01:07:57.673Z,16.60
2023-08-17T01:10:29.931Z,13.73
2023-08-17T01:13:07.581Z,7.70
2023-08-17T01:15:42.537Z,6.50
2023-08-17T01:18:19.598Z,8.33
2023-08-17T01:20:48.564Z,6.43
2023-08-17T01:23:18.397Z,3.87
2023-08-17T01:25:46.502Z,3.67
2023-08-17T01:28:14.650Z,4.10
2023-08-17T01:30:55.208Z,3.73
2023-08-17T01:33:31.213Z,2.97
2023-08-17T01:36:13.406Z,4.70
2023-08-17T01:38:47.655Z,5.37
2023-08-17T01:41:17.743Z,3.90
2023-08-17T01:43:48.960Z,3.63
2023-08-17T01:46:18.453Z,4.10
2023-08-17T01:48:47.951Z,5.37
2023-08-17T01:51:21.590Z,7.00
2023-08-17T01:53:51.198Z,6.87
2023-08-17T01:56:19.796Z,4.40
2023-08-17T01:58:48.114Z,9.87
2023-08-17T02:01:16.210Z,4.20
2023-08-17T02:03:44.266Z,6.20
2023-08-17T02:06:12.317Z,7.87
2023-08-17T02:08:40.563Z,7.83
2023-08-17T02:11:10.888Z,5.20
2023-08-17T02:13:40.581Z,4.87
2023-08-17T02:16:08.652Z,5.50
2023-08-17T02:18:36.691Z,5.43
2023-08-17T02:21:05.162Z,6.53
2023-08-17T02:23:33.425Z,5.73
2023-08-17T02:26:01.552Z,5.30
2023-08-17T02:28:31.119Z,6.97
2023-08-17T02:31:01.140Z,3.50
2023-08-17T02:33:29.985Z,4.77
2023-08-17T02:35:58.186Z,6.07
2023-08-17T02:38:26.366Z,4.93
2023-08-17T02:40:54.381Z,4.27
2023-08-17T02:43:22.437Z,6.20
2023-08-17T02:45:51.837Z,4.40
2023-08-17T02:48:20.737Z,3.40
2023-08-17T02:50:48.850Z,5.13
2023-08-17T02:53:16.978Z,5.27
2023-08-17T02:55:45.279Z,4.10
2023-08-17T02:58:13.840Z,4.90
2023-08-17T03:00:41.903Z,3.90
2023-08-17T03:03:11.329Z,4.17
2023-08-17T03:05:39.371Z,4.10
2023-08-17T03:08:07.924Z,5.70
2023-08-17T03:10:36.928Z,3.80
2023-08-17T03:13:05.626Z,4.70
2023-08-17T03:15:33.684Z,6.07
2023-08-17T03:18:01.789Z,5.23
2023-08-17T03:20:31.666Z,3.93
2023-08-17T03:23:00.082Z,4.93
2023-08-17T03:25:28.387Z,3.60
2023-08-17T03:27:56.628Z,3.33
2023-08-17T03:30:24.862Z,4.37
2023-08-17T03:32:53.234Z,3.50
2023-08-17T03:35:21.304Z,6.20
2023-08-17T03:37:50.754Z,4.67
2023-08-17T03:40:18.942Z,5.50
2023-08-17T03:42:46.965Z,4.37
2023-08-17T03:45:14.987Z,3.00
2023-08-17T03:47:43.078Z,3.50
2023-08-17T03:50:11.972Z,5.03
2023-08-17T03:52:40.048Z,3.57
2023-08-17T03:55:10.210Z,4.43
2023-08-17T03:57:39.741Z,5.53
2023-08-17T04:00:11.270Z,3.57
2023-08-17T04:02:42.379Z,3.73
2023-08-17T04:05:13.167Z,3.47
2023-08-17T04:07:41.537Z,3.80
2023-08-17T04:10:11.581Z,4.37
2023-08-17T04:12:40.224Z,2.67
2023-08-17T04:15:09.939Z,3.30
2023-08-17T04:17:38.006Z,3.43
2023-08-17T04:20:07.508Z,5.23
2023-08-17T04:22:35.604Z,3.23
2023-08-17T04:25:04.362Z,4.07
2023-08-17T04:27:33.777Z,3.80
2023-08-17T04:30:03.386Z,4.80
2023-08-17T04:32:38.856Z,3.57
2023-08-17T04:35:07.905Z,5.47
2023-08-17T04:37:36.047Z,6.30
2023-08-17T04:40:06.372Z,4.20
2023-08-17T04:42:35.938Z,5.33
2023-08-17T04:45:04.976Z,4.37
2023-08-17T04:47:33.720Z,3.90
2023-08-17T04:50:01.985Z,3.73
2023-08-17T04:52:30.067Z,3.97
2023-08-17T04:54:58.249Z,3.83
2023-08-17T04:57:27.461Z,3.93
2023-08-17T04:59:57.365Z,3.27
2023-08-17T05:02:25.618Z,3.53
2023-08-17T05:04:54.459Z,4.40
2023-08-17T05:07:22.710Z,5.30
2023-08-17T05:09:50.743Z,3.80
2023-08-17T05:12:19.236Z,5.30
2023-08-17T05:14:47.819Z,3.83
2023-08-17T05:17:17.506Z,4.27
2023-08-17T05:19:45.650Z,3.90
2023-08-17T05:22:14.830Z,4.40
2023-08-17T05:24:42.990Z,4.47
2023-08-17T05:27:11.182Z,7.10
2023-08-17T05:29:39.249Z,5.67
2023-08-17T05:32:07.953Z,4.67
2023-08-17T05:34:38.741Z,5.23
2023-08-17T05:37:06.836Z,4.53
2023-08-17T05:39:36.452Z,6.63
2023-08-17T05:42:05.210Z,5.80
2023-08-17T05:44:33.314Z,4.93
2023-08-17T05:47:01.442Z,5.20
2023-08-17T05:49:29.985Z,6.07
2023-08-17T05:51:59.483Z,6.13
2023-08-17T05:54:27.651Z,5.40
2023-08-17T05:56:55.686Z,6.07
2023-08-17T05:59:23.803Z,7.07
2023-08-17T06:01:51.849Z,4.87
2023-08-17T06:04:20.832Z,5.97
2023-08-17T06:06:49.145Z,5.37
2023-08-17T06:09:18.584Z,5.77
2023-08-17T06:11:46.637Z,5.10
2023-08-17T06:14:14.686Z,7.40
2023-08-17T06:16:42.746Z,4.87
2023-08-17T06:19:13.706Z,4.70
2023-08-17T06:21:41.773Z,6.53
2023-08-17T06:24:09.858Z,4.30
2023-08-17T06:26:39.231Z,3.60
2023-08-17T06:29:07.306Z,3.53
2023-08-17T06:31:35.654Z,3.70
2023-08-17T06:34:04.006Z,4.33
2023-08-17T06:36:34.325Z,3.70
2023-08-17T06:39:02.498Z,3.77
2023-08-17T06:41:30.524Z,3.23
2023-08-17T06:43:59.933Z,4.63
2023-08-17T06:46:29.156Z,3.83
2023-08-17T06:48:57.236Z,3.83
2023-08-17T06:51:25.409Z,3.80
2023-08-17T06:53:53.451Z,4.07
2023-08-17T06:56:21.574Z,4.80
2023-08-17T06:58:49.604Z,5.20
2023-08-17T07:01:19.038Z,5.60
2023-08-17T07:03:47.103Z,5.80
2023-08-17T07:06:15.395Z,5.60
2023-08-17T07:08:43.526Z,5.47
2023-08-17T07:11:11.980Z,6.40
2023-08-17T07:13:40.095Z,6.30
2023-08-17T07:16:08.676Z,6.80
2023-08-17T07:18:38.691Z,5.83
2023-08-17T07:21:06.931Z,5.37
2023-08-17T07:23:35.007Z,6.37
2023-08-17T07:26:03.057Z,6.27
2023-08-17T07:28:31.134Z,5.60
2023-08-17T07:30:59.215Z,5.00
2023-08-17T07:33:27.272Z,5.50
2023-08-17T07:35:59.159Z,5.60
2023-08-17T07:38:27.416Z,5.80
2023-08-17T07:40:56.873Z,7.23
2023-08-17T07:43:25.089Z,7.57
2023-08-17T07:45:56.997Z,8.70
2023-08-17T07:48:25.370Z,7.63
2023-08-17T07:50:54.784Z,8.33
2023-08-17T07:53:24.188Z,7.50
2023-08-17T07:55:54.664Z,7.43
2023-08-17T07:58:24.264Z,6.53
2023-08-17T08:00:52.334Z,6.73
2023-08-17T08:03:20.926Z,5.60
2023-08-17T08:05:48.972Z,4.50
2023-08-17T08:08:18.560Z,5.33
2023-08-17T08:10:48.158Z,3.50
2023-08-17T08:13:17.780Z,7.93
2023-08-17T08:15:46.192Z,5.63
2023-08-17T08:18:14.632Z,5.10
2023-08-17T08:20:45.159Z,3.80
2023-08-17T08:23:13.479Z,5.07
2023-08-17T08:25:42.121Z,4.43
2023-08-17T08:28:11.753Z,3.67
2023-08-17T08:30:39.828Z,4.10
2023-08-17T08:33:07.925Z,5.27
2023-08-17T08:35:35.976Z,4.30
2023-08-17T08:38:04.119Z,4.30
2023-08-17T08:40:32.944Z,3.90
2023-08-17T08:43:01.744Z,4.07
2023-08-17T08:45:32.706Z,6.93
2023-08-17T08:48:04.182Z,4.20
2023-08-17T08:50:35.750Z,3.17
2023-08-17T08:53:05.754Z,3.00
2023-08-17T08:55:45.825Z,3.70
2023-08-17T08:58:15.281Z,5.17
2023-08-17T09:00:48.446Z,4.27
2023-08-17T09:03:19.196Z,5.07
2023-08-17T09:05:51.267Z,3.27
2023-08-17T09:08:25.075Z,3.10
2023-08-17T09:10:53.412Z,3.13
2023-08-17T09:13:21.662Z,3.80
2023-08-17T09:15:51.241Z,3.27
2023-08-17T09:18:19.845Z,1.90
2023-08-17T09:20:49.681Z,4.17
2023-08-17T09:23:20.812Z,2.60
2023-08-17T09:25:50.288Z,2.10
2023-08-17T09:28:21.058Z,3.43
2023-08-17T09:30:55.126Z,2.20
2023-08-17T09:33:24.635Z,3.73
2023-08-17T09:35:58.527Z,2.50
2023-08-17T09:38:28.623Z,3.73
2023-08-17T09:40:57.240Z,4.63
2023-08-17T09:43:29.170Z,3.03
2023-08-17T09:46:00.322Z,4.17
2023-08-17T09:48:33.032Z,5.27
2023-08-17T09:51:03.106Z,1.87
2023-08-17T09:53:31.224Z,2.07
2023-08-17T09:56:01.427Z,1.87
2023-08-17T09:58:31.417Z,2.17
2023-08-17T10:01:06.076Z,1.57
2023-08-17T10:03:36.726Z,2.70
2023-08-17T10:06:10.180Z,2.13
2023-08-17T10:08:45.669Z,2.20
2023-08-17T10:11:18.660Z,1.90
2023-08-17T10:13:54.239Z,3.17
2023-08-17T10:16:30.663Z,3.13
2023-08-17T10:19:14.170Z,2.13
2023-08-17T10:21:48.801Z,2.80
2023-08-17T10:24:17.529Z,3.10
2023-08-17T10:26:48.330Z,2.03
2023-08-17T10:29:17.816Z,2.50
2023-08-17T10:31:47.908Z,2.60
2023-08-17T10:34:17.455Z,2.63
2023-08-17T10:36:47.518Z,2.17
2023-08-17T10:39:29.361Z,2.27
2023-08-17T10:41:59.861Z,2.50
2023-08-17T10:44:45.373Z,2.73
2023-08-17T10:47:35.004Z,2.43
2023-08-17T10:50:08.885Z,2.20
2023-08-17T10:52:39.302Z,3.03
2023-08-17T10:55:09.872Z,2.50
2023-08-17T10:57:39.342Z,2.40
2023-08-17T11:00:21.795Z,2.73
2023-08-17T11:03:00.599Z,2.70
2023-08-17T11:05:40.677Z,3.03
2023-08-17T11:08:10.325Z,2.90
2023-08-17T11:10:39.588Z,3.27
2023-08-17T11:13:08.412Z,3.47
2023-08-17T11:15:43.827Z,3.53
2023-08-17T11:18:14.365Z,4.53
2023-08-17T11:20:44.278Z,4.57
2023-08-17T11:23:13.091Z,4.50
2023-08-17T11:25:41.612Z,3.53
2023-08-17T11:28:10.853Z,4.23
2023-08-17T11:30:40.319Z,3.93
2023-08-17T11:33:09.644Z,3.63
2023-08-17T11:35:40.603Z,3.40
2023-08-17T11:38:09.578Z,5.13
2023-08-17T11:40:38.356Z,4.20
2023-08-17T11:43:06.813Z,3.93
2023-08-17T11:45:35.509Z,3.47
2023-08-17T11:48:05.352Z,3.30
2023-08-17T11:50:33.818Z,3.63
2023-08-17T11:53:05.565Z,3.80
2023-08-17T11:55:33.867Z,5.90
2023-08-17T12:00:41.262Z,3.13
2023-08-17T12:03:09.580Z,3.60
2023-08-17T12:05:37.904Z,3.20
2023-08-17T12:08:10.397Z,5.27
2023-08-17T12:10:40.196Z,5.63
2023-08-17T12:13:12.797Z,3.93
2023-08-17T12:15:41.228Z,3.20
2023-08-17T12:18:09.341Z,4.00
2023-08-17T12:20:37.922Z,3.53
2023-08-17T12:23:08.084Z,4.00
2023-08-17T12:25:36.255Z,3.73
2023-08-17T12:28:04.755Z,4.20
2023-08-17T12:30:37.088Z,3.77
2023-08-17T12:33:06.107Z,3.50
2023-08-17T12:35:34.708Z,5.40
2023-08-17T12:38:02.840Z,4.00
2023-08-17T12:40:32.216Z,3.73
2023-08-17T12:43:00.305Z,5.03
2023-08-17T12:45:28.886Z,5.00
2023-08-17T12:47:57.095Z,5.10
2023-08-17T12:50:25.431Z,5.57
2023-08-17T12:52:53.539Z,5.40
2023-08-17T12:55:21.616Z,5.00
2023-08-17T12:57:51.828Z,5.20
2023-08-17T13:00:20.106Z,5.23
2023-08-17T13:02:50.363Z,6.40
2023-08-17T13:05:18.618Z,5.77
2023-08-17T13:07:46.699Z,5.67
2023-08-17T13:10:14.762Z,5.77
2023-08-17T13:12:42.824Z,7.10
2023-08-17T13:15:12.415Z,6.43
2023-08-17T13:17:40.770Z,6.60
2023-08-17T13:20:11.476Z,6.30
2023-08-17T13:22:39.588Z,7.07
2023-08-17T13:25:08.952Z,6.87
2023-08-17T13:27:37.077Z,7.00
2023-08-17T13:30:05.443Z,6.83
2023-08-17T13:32:34.849Z,6.73
2023-08-17T13:35:03.726Z,5.90
2023-08-17T13:37:32.207Z,5.80
2023-08-17T13:40:01.450Z,5.23
2023-08-17T13:42:32.614Z,5.47
2023-08-17T13:45:01.229Z,5.80
2023-08-17T13:47:29.344Z,5.47
2023-08-17T13:49:59.591Z,5.60
2023-08-17T13:52:28.093Z,5.83
2023-08-17T13:54:56.462Z,5.43
2023-08-17T13:57:24.606Z,5.93
2023-08-17T13:59:53.880Z,6.27
2023-08-17T14:02:22.020Z,7.20
2023-08-17T14:04:50.091Z,6.37
2023-08-17T14:07:19.493Z,5.83
2023-08-17T14:10:01.828Z,6.90
2023-08-17T14:12:36.240Z,6.80
2023-08-17T14:15:05.244Z,7.13
2023-08-17T14:17:33.389Z,7.37
2023-08-17T14:20:01.477Z,6.80
2023-08-17T14:22:30.845Z,7.87
2023-08-17T14:24:59.210Z,7.30
2023-08-17T14:27:27.404Z,7.07
2023-08-17T14:29:55.430Z,7.30
2023-08-17T14:32:23.480Z,7.33
2023-08-17T14:34:53.772Z,7.40
2023-08-17T14:37:25.006Z,7.20
2023-08-17T14:39:55.016Z,7.30
2023-08-17T14:42:24.476Z,6.80
2023-08-17T14:44:53.129Z,5.87
2023-08-17T14:47:21.711Z,6.10
2023-08-17T14:49:49.976Z,6.40
2023-08-17T14:52:18.007Z,7.23
2023-08-17T14:54:46.038Z,7.00
2023-08-17T14:57:15.536Z,7.80
2023-08-17T14:59:43.583Z,7.27
2023-08-17T15:02:11.746Z,7.57
2023-08-17T15:04:39.905Z,7.70
2023-08-17T15:07:11.505Z,7.70
2023-08-17T15:09:39.820Z,7.67
2023-08-17T15:12:08.461Z,7.83
2023-08-17T15:14:38.059Z,8.60
2023-08-17T15:17:06.354Z,7.77
2023-08-17T15:19:40.265Z,8.40
2023-08-17T15:24:44.410Z,11.90
2023-08-17T15:27:12.523Z,12.63
2023-08-17T15:29:42.200Z,12.60
2023-08-17T15:32:11.318Z,15.40
2023-08-17T15:34:39.638Z,15.80
2023-08-17T15:37:08.705Z,15.90
2023-08-17T15:39:36.830Z,15.93
2023-08-17T15:42:05.151Z,17.47
2023-08-17T15:44:33.704Z,18.57
2023-08-17T15:47:03.283Z,19.43
2023-08-17T15:49:34.005Z,18.13
2023-08-17T15:52:06.843Z,18.33
2023-08-17T15:54:37.463Z,16.80
2023-08-17T15:57:06.231Z,17.10
2023-08-17T15:59:35.089Z,19.83
2023-08-17T16:02:04.816Z,18.87
2023-08-17T16:04:33.312Z,20.47
2023-08-17T16:07:01.771Z,20.17
2023-08-17T16:09:31.407Z,20.00
2023-08-17T16:11:59.753Z,18.70
2023-08-17T16:14:27.808Z,19.03
2023-08-17T16:16:57.174Z,20.73
2023-08-17T16:19:27.336Z,24.10
2023-08-17T16:21:55.451Z,20.10
2023-08-17T16:26:54.533Z,22.37
2023-08-17T16:29:22.666Z,21.93
2023-08-17T16:32:08.700Z,20.80
2023-08-17T16:34:40.030Z,20.50
2023-08-17T16:37:08.082Z,19.50
2023-08-17T16:39:36.170Z,21.23
2023-08-17T16:42:04.317Z,23.53
2023-08-17T16:44:32.457Z,23.83
2023-08-17T16:47:00.633Z,24.03
2023-08-17T16:49:30.580Z,22.30
2023-08-17T16:52:01.137Z,24.27
2023-08-17T16:54:29.315Z,25.20
2023-08-17T16:57:00.087Z,27.83
2023-08-17T16:59:28.205Z,27.20
2023-08-17T17:01:56.325Z,25.93
2023-08-17T17:04:24.560Z,24.70
2023-08-17T17:06:52.786Z,29.10
2023-08-17T17:09:22.448Z,27.43
2023-08-17T17:11:50.558Z,26.47
2023-08-17T17:14:18.765Z,27.27
2023-08-17T17:16:46.824Z,25.00
2023-08-17T17:19:14.884Z,29.90
2023-08-17T17:21:43.507Z,26.17
2023-08-17T17:24:11.700Z,25.57
2023-08-17T17:26:41.416Z,28.83
2023-08-17T17:29:11.434Z,29.20
2023-08-17T17:31:39.532Z,28.50
2023-08-17T17:34:08.326Z,30.00
2023-08-17T17:36:36.464Z,27.67
2023-08-17T17:39:04.920Z,27.60
2023-08-17T17:41:33.160Z,29.10
2023-08-17T17:44:02.692Z,26.93
2023-08-17T17:46:30.841Z,29.10
2023-08-17T17:48:59.885Z,28.07
2023-08-17T17:51:28.060Z,29.67
2023-08-17T17:53:57.375Z,29.83
2023-08-17T17:56:39.513Z,28.83
2023-08-17T17:59:11.442Z,28.37
2023-08-17T18:01:39.898Z,27.43
2023-08-17T18:04:08.267Z,27.23
2023-08-17T18:06:36.764Z,29.67
2023-08-17T18:09:06.713Z,32.60
2023-08-17T18:11:34.808Z,29.80
2023-08-17T18:14:03.489Z,28.60
2023-08-17T18:16:33.101Z,25.73
2023-08-17T18:19:01.292Z,26.60
2023-08-17T18:21:31.176Z,32.10
2023-08-17T18:24:00.140Z,27.50
2023-08-17T18:26:28.881Z,25.73
2023-08-17T18:28:57.263Z,26.20
2023-08-17T18:31:25.370Z,25.63
2023-08-17T18:33:54.862Z,29.40
2023-08-17T18:36:23.038Z,24.53
2023-08-17T18:38:51.215Z,26.50
2023-08-17T18:41:19.390Z,24.60
2023-08-17T18:43:47.449Z,27.40
2023-08-17T18:46:15.588Z,25.60
2023-08-17T18:48:43.619Z,23.33
2023-08-17T18:51:13.197Z,23.80
2023-08-17T18:53:41.294Z,22.17
2023-08-17T18:56:09.372Z,26.10
2023-08-17T18:58:37.522Z,24.87
2023-08-17T19:01:05.701Z,22.37
2023-08-17T19:03:33.895Z,21.47
2023-08-17T19:06:03.263Z,21.53
2023-08-17T19:08:32.937Z,22.83
2023-08-17T19:11:01.003Z,21.87
2023-08-17T19:13:29.046Z,20.37
2023-08-17T19:15:57.277Z,21.10
2023-08-17T19:18:25.424Z,20.33
2023-08-17T19:20:56.297Z,20.13
2023-08-17T19:23:24.335Z,20.10
2023-08-17T19:25:53.807Z,20.10
2023-08-17T19:28:21.866Z,19.73
2023-08-17T19:30:49.943Z,19.03
2023-08-17T19:33:18.988Z,19.27
2023-08-17T19:35:47.585Z,20.27
2023-08-17T19:38:16.074Z,20.77
2023-08-17T19:40:45.754Z,21.77
2023-08-17T19:43:15.184Z,22.00
2023-08-17T19:45:43.571Z,20.00
2023-08-17T19:48:11.757Z,22.03
2023-08-17T19:50:40.290Z,19.60
2023-08-17T19:53:08.404Z,20.07
2023-08-17T19:55:36.655Z,20.50
2023-08-17T19:58:05.564Z,18.83
2023-08-17T20:00:35.116Z,21.97
2023-08-17T20:03:03.347Z,19.77
2023-08-17T20:05:31.597Z,20.10
2023-08-17T20:07:59.745Z,20.70
2023-08-17T20:10:27.913Z,19.87
2023-08-17T20:12:55.944Z,19.00
2023-08-17T20:15:24.001Z,21.00
2023-08-17T20:17:53.512Z,20.83
2023-08-17T20:20:21.597Z,21.87
2023-08-17T20:22:49.641Z,24.13
2023-08-17T20:25:17.894Z,29.43
2023-08-17T20:27:46.029Z,33.07
2023-08-17T20:30:14.874Z,29.67
2023-08-17T20:32:42.946Z,29.67
2023-08-17T20:35:12.434Z,32.97
2023-08-17T20:37:40.564Z,35.13
2023-08-17T20:40:10.478Z,38.60
2023-08-17T20:42:38.537Z,39.33
2023-08-17T20:45:07.890Z,38.50
2023-08-17T20:47:35.943Z,43.20
2023-08-17T20:50:04.380Z,40.57
2023-08-17T20:52:33.746Z,40.23
2023-08-17T20:55:03.381Z,36.10
2023-08-17T20:57:31.437Z,34.93
2023-08-17T20:59:59.668Z,37.63
2023-08-17T21:02:30.148Z,36.80
2023-08-17T21:04:58.227Z,38.20
2023-08-17T21:07:28.997Z,40.93
2023-08-17T21:09:59.827Z,43.23
2023-08-17T21:12:28.560Z,41.27
2023-08-17T21:14:58.316Z,41.93
2023-08-17T21:17:28.737Z,40.70
2023-08-17T21:19:57.099Z,47.17
2023-08-17T21:22:27.661Z,44.80
2023-08-17T21:24:55.729Z,42.47
2023-08-17T21:27:25.120Z,45.90
2023-08-17T21:29:53.278Z,46.97
2023-08-17T21:32:21.376Z,53.27
2023-08-17T21:34:49.440Z,50.57
2023-08-17T21:37:28.438Z,51.77
2023-08-17T21:39:56.821Z,54.13
2023-08-17T21:42:26.358Z,47.20
2023-08-17T21:44:56.294Z,52.00
2023-08-17T21:47:24.353Z,53.93
2023-08-17T21:49:52.492Z,55.47
2023-08-17T21:52:20.622Z,52.03
2023-08-17T21:54:51.666Z,55.40
2023-08-17T21:57:19.975Z,49.40
2023-08-17T21:59:49.339Z,57.50
2023-08-17T22:02:17.393Z,55.30
2023-08-17T22:04:45.858Z,58.27
2023-08-17T22:07:13.891Z,54.37
2023-08-17T22:09:41.954Z,52.97
2023-08-17T22:12:10.147Z,56.50
2023-08-17T22:14:38.215Z,55.10
2023-08-17T22:17:07.644Z,51.73
2023-08-17T22:19:35.783Z,50.87
2023-08-17T22:22:05.536Z,57.97
2023-08-17T22:24:45.161Z,53.03
2023-08-17T22:27:18.790Z,54.60
2023-08-17T22:29:46.828Z,58.53
2023-08-17T22:32:16.245Z,54.07
2023-08-17T22:34:44.351Z,55.40
2023-08-17T22:37:14.396Z,60.50
2023-08-17T22:39:43.056Z,60.73
2023-08-17T22:42:11.298Z,58.57
2023-08-17T22:44:39.332Z,60.33
2023-08-17T22:47:07.419Z,58.70
2023-08-17T22:49:36.786Z,56.10
2023-08-17T22:52:05.683Z,54.40
2023-08-17T22:54:33.719Z,56.67
2023-08-17T22:57:03.376Z,53.57
2023-08-17T22:59:31.454Z,54.57
2023-08-17T23:01:59.643Z,58.20
2023-08-17T23:04:29.176Z,54.00
2023-08-17T23:06:58.769Z,57.33
2023-08-17T23:09:28.595Z,61.43
2023-08-17T23:11:56.683Z,55.90
2023-08-17T23:14:24.825Z,52.37
2023-08-17T23:16:52.883Z,60.63
2023-08-17T23:19:20.918Z,57.03
2023-08-17T23:21:48.982Z,58.27
2023-08-17T23:24:18.351Z,49.80
2023-08-17T23:26:46.520Z,55.50
2023-08-17T23:29:14.567Z,57.00
2023-08-17T23:31:42.780Z,62.93
2023-08-17T23:34:10.924Z,55.70
2023-08-17T23:36:38.999Z,57.53
2023-08-17T23:39:07.869Z,56.77
2023-08-17T23:41:37.260Z,53.63
2023-08-17T23:44:05.955Z,55.87
2023-08-17T23:46:34.014Z,54.20
2023-08-17T23:49:02.048Z,53.30
2023-08-17T23:51:30.128Z,62.90
2023-08-17T23:53:58.161Z,58.00
2023-08-17T23:56:26.289Z,55.40
2023-08-17T23:58:55.856Z,59.40
